Time;durP1;ratioP1;P1;durP2;ratioP2;P2;SDS_P1;SDS_P2;PMS_P1;PMS_P2;Temp;Humidity;BMP_temperature;BMP_pressure;BME280_temperature;BME280_humidity;BME280_pressure;Samples;Min_cycle;Max_cycle;Signal;HPM_P1;HPM_P2
2022/04/20 00:01:46;;;;;;;4.55;2.90;;;;;;;;;;5072873;28;20024;-70
2022/04/20 00:04:13;;;;;;;4.00;2.78;;;;;;;;;;5074015;28;20040;-70
2022/04/20 00:06:40;;;;;;;3.63;2.50;;;;;;;;;;5073098;28;20405;-70
2022/04/20 00:09:06;;;;;;;2.60;2.35;;;;;;;;;;5074323;28;20027;-70
2022/04/20 00:11:33;;;;;;;4.90;2.60;;;;;;;;;;5073853;28;20036;-70
2022/04/20 00:13:59;;;;;;;3.63;2.70;;;;;;;;;;5073849;28;20023;-70
2022/04/20 00:16:25;;;;;;;3.25;2.08;;;;;;;;;;5073764;28;20032;-70
2022/04/20 00:18:52;;;;;;;5.05;2.53;;;;;;;;;;5073746;28;20070;-70
2022/04/20 00:21:18;;;;;;;4.32;2.55;;;;;;;;;;5072748;28;20020;-70
2022/04/20 00:23:44;;;;;;;4.25;2.03;;;;;;;;;;5072269;28;20043;-70
2022/04/20 00:26:10;;;;;;;2.85;2.25;;;;;;;;;;5073193;28;20033;-70
2022/04/20 00:28:37;;;;;;;2.95;2.35;;;;;;;;;;5073715;28;20106;-70
2022/04/20 00:31:03;;;;;;;3.03;2.38;;;;;;;;;;5073613;28;20024;-70
2022/04/20 00:33:29;;;;;;;2.92;2.08;;;;;;;;;;5072874;28;20035;-70
2022/04/20 00:35:56;;;;;;;2.65;2.22;;;;;;;;;;5073395;28;20021;-70
2022/04/20 00:38:22;;;;;;;2.20;1.90;;;;;;;;;;5073521;28;20025;-70
2022/04/20 00:40:49;;;;;;;2.75;2.03;;;;;;;;;;5072895;28;20434;-70
2022/04/20 00:43:16;;;;;;;2.38;2.10;;;;;;;;;;5073043;28;20485;-70
2022/04/20 00:45:43;;;;;;;2.25;2.05;;;;;;;;;;5072459;28;20508;-70
2022/04/20 00:48:12;;;;;;;2.28;1.77;;;;;;;;;;5072930;28;20073;-70
2022/04/20 00:50:39;;;;;;;2.33;1.77;;;;;;;;;;5073174;28;20032;-70
2022/04/20 00:53:06;;;;;;;1.73;1.63;;;;;;;;;;5072443;28;20028;-70
2022/04/20 00:55:32;;;;;;;2.10;1.83;;;;;;;;;;5088683;28;20036;-70
2022/04/20 00:57:58;;;;;;;4.00;1.80;;;;;;;;;;5073478;28;20031;-70
2022/04/20 01:00:27;;;;;;;2.45;1.55;;;;;;;;;;5072127;28;20012;-70
2022/04/20 01:02:54;;;;;;;1.92;1.60;;;;;;;;;;5072655;28;20025;-70
2022/04/20 01:05:21;;;;;;;1.92;1.42;;;;;;;;;;5072852;28;20040;-70
2022/04/20 01:07:49;;;;;;;1.50;1.40;;;;;;;;;;5072824;28;20016;-70
2022/04/20 01:10:16;;;;;;;1.30;1.17;;;;;;;;;;5072502;28;20485;-70
2022/04/20 01:12:46;;;;;;;1.35;1.02;;;;;;;;;;5070659;28;20029;-70
2022/04/20 01:15:12;;;;;;;1.25;1.10;;;;;;;;;;5072350;28;20032;-70
2022/04/20 01:17:39;;;;;;;1.17;1.08;;;;;;;;;;5072789;28;20023;-70
2022/04/20 01:20:14;;;;;;;1.55;1.00;;;;;;;;;;5072808;28;20077;-70
2022/04/20 01:22:41;;;;;;;1.27;1.17;;;;;;;;;;5071631;28;20148;-70
2022/04/20 01:25:08;;;;;;;1.30;1.20;;;;;;;;;;5072378;28;20042;-70
2022/04/20 01:27:35;;;;;;;1.35;1.02;;;;;;;;;;5070528;28;20392;-69
2022/04/20 01:30:01;;;;;;;1.30;0.82;;;;;;;;;;5074123;28;20033;-70
2022/04/20 01:32:27;;;;;;;0.80;0.80;;;;;;;;;;5072565;28;20037;-70
2022/04/20 01:34:54;;;;;;;1.05;0.88;;;;;;;;;;5072744;28;20036;-69
2022/04/20 01:37:21;;;;;;;2.63;1.08;;;;;;;;;;5072594;28;20082;-70
2022/04/20 01:39:47;;;;;;;0.85;0.85;;;;;;;;;;5072576;28;20028;-70
2022/04/20 01:42:14;;;;;;;0.90;0.90;;;;;;;;;;5069376;28;20029;-70
2022/04/20 01:44:40;;;;;;;1.75;1.02;;;;;;;;;;5072224;28;20097;-70
2022/04/20 01:47:07;;;;;;;1.38;1.00;;;;;;;;;;5072306;28;20017;-69
2022/04/20 01:49:34;;;;;;;1.98;0.90;;;;;;;;;;5072496;28;20370;-70
2022/04/20 01:52:00;;;;;;;2.88;0.93;;;;;;;;;;5072724;28;20047;-70
2022/04/20 01:54:26;;;;;;;2.17;0.93;;;;;;;;;;5071082;28;20020;-70
2022/04/20 01:56:53;;;;;;;0.80;0.80;;;;;;;;;;5072258;28;20105;-70
2022/04/20 01:59:19;;;;;;;1.40;1.05;;;;;;;;;;5072139;28;20439;-70
2022/04/20 02:04:31;;;;;;;1.23;0.90;;;;;;;;;;5072295;28;20824;-70
2022/04/20 02:06:57;;;;;;;1.25;1.02;;;;;;;;;;5075757;28;20031;-70
2022/04/20 02:09:24;;;;;;;1.30;0.98;;;;;;;;;;5074822;28;20028;-70
2022/04/20 02:11:50;;;;;;;0.85;0.80;;;;;;;;;;5076349;28;20021;-70
2022/04/20 02:14:17;;;;;;;2.40;0.95;;;;;;;;;;5076140;28;20082;-70
2022/04/20 02:16:43;;;;;;;1.30;1.20;;;;;;;;;;5075884;28;20438;-70
2022/04/20 02:19:10;;;;;;;1.25;1.05;;;;;;;;;;5076091;28;20036;-70
2022/04/20 02:21:36;;;;;;;1.85;0.98;;;;;;;;;;5075383;28;20024;-70
2022/04/20 02:24:02;;;;;;;1.08;0.98;;;;;;;;;;5074879;28;20497;-70
2022/04/20 02:26:29;;;;;;;1.02;0.80;;;;;;;;;;5075948;28;20501;-70
2022/04/20 02:28:55;;;;;;;1.70;0.73;;;;;;;;;;5075753;28;20024;-69
2022/04/20 02:31:21;;;;;;;0.95;0.90;;;;;;;;;;5076068;28;20042;-70
2022/04/20 02:33:48;;;;;;;1.63;0.80;;;;;;;;;;5076114;28;20032;-70
2022/04/20 02:36:14;;;;;;;2.38;1.10;;;;;;;;;;5072934;28;20040;-70
2022/04/20 02:38:40;;;;;;;1.08;1.00;;;;;;;;;;5074412;28;20025;-70
2022/04/20 02:41:07;;;;;;;3.13;1.00;;;;;;;;;;5075771;28;20024;-70
2022/04/20 02:43:33;;;;;;;1.20;1.10;;;;;;;;;;5074307;28;20097;-70
2022/04/20 02:46:00;;;;;;;3.38;1.20;;;;;;;;;;5075306;28;20047;-70
2022/04/20 02:48:26;;;;;;;1.67;1.10;;;;;;;;;;5074736;28;20022;-69
2022/04/20 02:50:52;;;;;;;1.20;1.10;;;;;;;;;;5075092;28;20032;-69
2022/04/20 02:53:19;;;;;;;1.30;1.17;;;;;;;;;;5075280;28;20020;-70
2022/04/20 02:55:45;;;;;;;2.72;1.40;;;;;;;;;;5075386;28;20374;-70
2022/04/20 02:58:11;;;;;;;3.30;1.75;;;;;;;;;;5075378;28;20039;-70
2022/04/20 03:00:38;;;;;;;2.80;1.88;;;;;;;;;;5074251;28;20374;-70
2022/04/20 03:03:04;;;;;;;1.48;1.38;;;;;;;;;;5075283;28;20020;-70
2022/04/20 03:05:30;;;;;;;1.90;1.40;;;;;;;;;;5074684;28;20089;-69
2022/04/20 03:07:57;;;;;;;1.98;1.30;;;;;;;;;;5075466;28;20028;-70
2022/04/20 03:10:23;;;;;;;3.53;1.50;;;;;;;;;;5075076;28;20028;-70
2022/04/20 03:12:50;;;;;;;3.63;1.75;;;;;;;;;;5075019;28;20021;-69
2022/04/20 03:15:17;;;;;;;3.03;1.30;;;;;;;;;;5074068;28;20495;-70
2022/04/20 03:17:43;;;;;;;5.47;2.20;;;;;;;;;;5078379;28;20523;-70
2022/04/20 03:20:10;;;;;;;4.60;2.53;;;;;;;;;;5081230;28;20032;-70
2022/04/20 03:22:36;;;;;;;5.72;2.65;;;;;;;;;;5074867;28;20038;-70
2022/04/20 03:25:03;;;;;;;3.33;1.80;;;;;;;;;;5074950;28;20485;-70
2022/04/20 03:27:30;;;;;;;6.50;1.92;;;;;;;;;;5073948;28;20031;-70
2022/04/20 03:29:56;;;;;;;3.22;1.58;;;;;;;;;;5074646;28;20073;-70
2022/04/20 03:32:22;;;;;;;4.82;1.77;;;;;;;;;;5074790;28;20032;-70
2022/04/20 03:34:49;;;;;;;3.17;1.60;;;;;;;;;;5074361;28;20370;-70
2022/04/20 03:37:15;;;;;;;3.00;1.45;;;;;;;;;;5074769;28;20405;-70
2022/04/20 03:39:42;;;;;;;2.13;1.58;;;;;;;;;;5073974;28;20083;-70
2022/04/20 03:42:09;;;;;;;2.30;1.55;;;;;;;;;;5073071;28;20020;-70
2022/04/20 03:44:36;;;;;;;4.95;1.83;;;;;;;;;;5074358;28;20051;-70
2022/04/20 03:47:03;;;;;;;7.15;2.08;;;;;;;;;;5074475;28;20023;-70
2022/04/20 03:49:30;;;;;;;3.05;1.48;;;;;;;;;;5074223;28;20493;-70
2022/04/20 03:51:56;;;;;;;3.17;1.50;;;;;;;;;;5074503;28;20042;-70
2022/04/20 03:54:22;;;;;;;2.75;1.70;;;;;;;;;;5073464;28;20024;-70
2022/04/20 03:57:04;;;;;;;2.80;1.85;;;;;;;;;;5074553;28;20031;-70
2022/04/20 03:59:35;;;;;;;4.38;2.38;;;;;;;;;;5074044;28;20074;-70
2022/04/20 04:02:01;;;;;;;9.30;2.75;;;;;;;;;;5074148;28;20069;-70
2022/04/20 04:04:28;;;;;;;4.43;2.70;;;;;;;;;;5073822;28;20040;-70
2022/04/20 04:06:54;;;;;;;4.20;2.42;;;;;;;;;;5074283;28;20026;-70
2022/04/20 04:09:21;;;;;;;3.90;2.45;;;;;;;;;;5072972;28;20025;-70
2022/04/20 04:11:47;;;;;;;6.28;2.70;;;;;;;;;;5074064;28;20028;-70
2022/04/20 04:14:13;;;;;;;6.97;3.53;;;;;;;;;;5073826;28;20017;-70
2022/04/20 04:16:40;;;;;;;7.55;2.70;;;;;;;;;;5073717;28;20021;-70
2022/04/20 04:19:07;;;;;;;7.03;3.60;;;;;;;;;;5089281;28;20034;-70
2022/04/20 04:21:38;;;;;;;7.93;3.17;;;;;;;;;;5073111;28;20033;-71
2022/04/20 04:24:05;;;;;;;6.07;3.17;;;;;;;;;;5073541;28;20025;-70
2022/04/20 04:26:32;;;;;;;6.30;3.72;;;;;;;;;;5073647;28;20036;-70
2022/04/20 04:28:58;;;;;;;8.38;4.30;;;;;;;;;;5072677;28;20024;-70
2022/04/20 04:31:25;;;;;;;9.25;3.60;;;;;;;;;;5073645;28;20497;-69
2022/04/20 04:33:51;;;;;;;8.70;4.18;;;;;;;;;;5073188;28;20409;-70
2022/04/20 04:36:17;;;;;;;7.88;4.03;;;;;;;;;;5072716;28;20039;-70
2022/04/20 04:38:43;;;;;;;7.07;3.20;;;;;;;;;;5073441;28;20032;-70
2022/04/20 04:41:10;;;;;;;9.05;3.78;;;;;;;;;;5072289;28;20021;-70
2022/04/20 04:43:37;;;;;;;7.43;4.15;;;;;;;;;;5073186;28;20048;-70
2022/04/20 04:48:48;;;;;;;5.93;2.30;;;;;;;;;;5071079;28;20024;-70
2022/04/20 04:51:15;;;;;;;4.68;1.77;;;;;;;;;;5070499;28;20035;-70
2022/04/20 04:53:42;;;;;;;3.00;1.42;;;;;;;;;;5073019;28;20042;-70
2022/04/20 04:56:08;;;;;;;1.70;1.30;;;;;;;;;;5072804;28;20032;-70
2022/04/20 04:58:35;;;;;;;2.15;1.58;;;;;;;;;;5071853;28;20020;-71
2022/04/20 05:01:01;;;;;;;2.00;1.15;;;;;;;;;;5057087;28;20020;-70
2022/04/20 05:03:28;;;;;;;3.92;1.48;;;;;;;;;;5071891;28;20104;-70
2022/04/20 05:05:54;;;;;;;4.80;1.52;;;;;;;;;;5072901;28;20089;-70
2022/04/20 05:08:20;;;;;;;1.83;1.30;;;;;;;;;;5073027;28;20035;-70
2022/04/20 05:10:47;;;;;;;1.65;1.48;;;;;;;;;;5073183;28;20029;-70
2022/04/20 05:13:13;;;;;;;2.00;1.50;;;;;;;;;;5072889;28;20017;-70
2022/04/20 05:15:39;;;;;;;4.43;2.08;;;;;;;;;;5071991;28;20320;-69
2022/04/20 05:18:06;;;;;;;4.15;2.03;;;;;;;;;;5072582;28;20040;-70
2022/04/20 05:20:32;;;;;;;4.05;2.50;;;;;;;;;;5072613;28;20512;-70
2022/04/20 05:22:58;;;;;;;4.40;2.38;;;;;;;;;;5072788;28;20382;-70
2022/04/20 05:25:25;;;;;;;7.88;3.22;;;;;;;;;;5072525;28;20043;-70
2022/04/20 05:27:51;;;;;;;5.28;2.40;;;;;;;;;;5072676;28;20028;-70
2022/04/20 05:30:18;;;;;;;3.97;2.28;;;;;;;;;;5071400;28;20505;-68
2022/04/20 05:32:45;;;;;;;4.38;2.30;;;;;;;;;;5072560;28;20503;-69
2022/04/20 05:35:11;;;;;;;3.92;2.33;;;;;;;;;;5072610;28;20024;-70
2022/04/20 05:43:27;;;;;;;5.40;3.00;;;;;;;;;;5051598;28;20166;-70
2022/04/20 05:45:53;;;;;;;4.38;2.60;;;;;;;;;;5049378;28;20086;-70
2022/04/20 05:48:20;;;;;;;4.90;2.72;;;;;;;;;;5053816;28;20098;-70
2022/04/20 05:50:47;;;;;;;6.20;2.70;;;;;;;;;;5052929;28;20052;-70
2022/04/20 05:53:13;;;;;;;4.05;2.88;;;;;;;;;;5053208;28;20040;-70
2022/04/20 05:55:39;;;;;;;4.88;3.08;;;;;;;;;;5053058;28;20033;-70
2022/04/20 05:58:06;;;;;;;9.90;3.25;;;;;;;;;;5048817;28;20044;-70
2022/04/20 06:00:32;;;;;;;5.63;2.90;;;;;;;;;;5053042;28;20059;-70
2022/04/20 06:02:59;;;;;;;3.88;2.80;;;;;;;;;;5052969;28;20025;-70
2022/04/20 06:05:26;;;;;;;5.10;3.05;;;;;;;;;;5052241;28;20429;-69
2022/04/20 06:07:52;;;;;;;6.78;3.20;;;;;;;;;;5053059;28;20442;-70
2022/04/20 06:10:18;;;;;;;4.00;2.75;;;;;;;;;;5050646;28;20079;-70
2022/04/20 06:12:44;;;;;;;5.80;3.70;;;;;;;;;;5071937;28;20058;-70
2022/04/20 06:15:11;;;;;;;4.35;3.20;;;;;;;;;;5071227;28;20035;-70
2022/04/20 06:17:37;;;;;;;5.15;2.83;;;;;;;;;;5072133;28;20039;-70
2022/04/20 06:20:05;;;;;;;4.97;3.50;;;;;;;;;;5072175;28;20021;-70
2022/04/20 06:22:31;;;;;;;4.22;3.03;;;;;;;;;;5071159;28;20028;-69
2022/04/20 06:24:57;;;;;;;8.77;3.30;;;;;;;;;;5070775;28;20032;-70
2022/04/20 06:27:30;;;;;;;4.72;3.38;;;;;;;;;;5070584;28;20374;-70
2022/04/20 06:29:57;;;;;;;6.85;3.42;;;;;;;;;;5071070;28;20025;-70
2022/04/20 06:32:24;;;;;;;6.10;3.45;;;;;;;;;;5070296;28;20025;-70
2022/04/20 06:34:55;;;;;;;5.25;3.65;;;;;;;;;;5071552;28;20045;-70
2022/04/20 06:37:21;;;;;;;5.65;3.78;;;;;;;;;;5071809;28;20042;-71
2022/04/20 06:39:49;;;;;;;7.70;3.75;;;;;;;;;;5070158;28;20028;-70
2022/04/20 06:42:18;;;;;;;4.65;3.60;;;;;;;;;;5068474;28;20518;-70
2022/04/20 06:44:44;;;;;;;8.60;3.85;;;;;;;;;;5070779;28;20048;-70
2022/04/20 06:47:11;;;;;;;6.22;3.85;;;;;;;;;;5071826;28;20019;-70
2022/04/20 06:49:37;;;;;;;4.97;3.55;;;;;;;;;;5071384;28;20032;-70
2022/04/20 07:00:19;;;;;;;4.55;3.78;;;;;;;;;;5072561;28;20082;-70
2022/04/20 07:02:46;;;;;;;5.63;3.80;;;;;;;;;;5073612;28;20039;-70
2022/04/20 07:05:12;;;;;;;6.00;4.03;;;;;;;;;;5090435;28;20404;-70
2022/04/20 07:07:38;;;;;;;7.20;3.55;;;;;;;;;;5074585;28;20481;-69
2022/04/20 07:10:05;;;;;;;4.72;3.45;;;;;;;;;;5074793;28;20023;-70
2022/04/20 07:12:32;;;;;;;5.72;3.70;;;;;;;;;;5069358;28;20031;-70
2022/04/20 07:14:58;;;;;;;4.88;3.33;;;;;;;;;;5069621;28;20024;-70
2022/04/20 07:17:24;;;;;;;4.15;3.22;;;;;;;;;;5069787;28;20031;-70
2022/04/20 07:19:51;;;;;;;5.93;3.83;;;;;;;;;;5074310;28;20039;-70
2022/04/20 07:22:17;;;;;;;5.45;3.88;;;;;;;;;;5074566;28;20024;-70
2022/04/20 07:24:43;;;;;;;7.82;4.05;;;;;;;;;;5073935;28;20024;-70
2022/04/20 07:27:09;;;;;;;6.10;4.75;;;;;;;;;;5073799;28;20485;-70
2022/04/20 07:29:36;;;;;;;10.05;4.50;;;;;;;;;;5072032;28;20291;-71
2022/04/20 07:32:02;;;;;;;6.35;4.50;;;;;;;;;;5069935;28;20024;-70
2022/04/20 07:34:29;;;;;;;6.03;4.20;;;;;;;;;;5074373;28;20021;-70
2022/04/20 07:36:55;;;;;;;7.50;4.68;;;;;;;;;;5073943;28;20045;-70
2022/04/20 07:39:21;;;;;;;7.60;4.00;;;;;;;;;;5073123;28;20400;-70
2022/04/20 07:41:47;;;;;;;6.47;4.32;;;;;;;;;;5070775;28;20028;-70
2022/04/20 07:44:14;;;;;;;7.55;5.00;;;;;;;;;;5070617;28;20048;-70
2022/04/20 07:46:41;;;;;;;8.88;4.88;;;;;;;;;;5073222;28;20031;-70
2022/04/20 07:51:53;;;;;;;6.47;5.18;;;;;;;;;;5073449;28;20025;-70
2022/04/20 07:54:19;;;;;;;8.48;4.50;;;;;;;;;;5065571;28;20021;-70
2022/04/20 07:56:45;;;;;;;6.70;5.10;;;;;;;;;;5072325;28;20427;-70
2022/04/20 07:59:12;;;;;;;5.57;4.60;;;;;;;;;;5073363;28;20024;-70
2022/04/20 08:01:38;;;;;;;6.72;4.82;;;;;;;;;;5072140;28;20032;-70
2022/04/20 08:04:05;;;;;;;5.20;4.35;;;;;;;;;;5073476;28;20020;-70
2022/04/20 08:06:31;;;;;;;6.88;4.95;;;;;;;;;;5067176;28;20031;-70
2022/04/20 08:08:58;;;;;;;5.50;4.55;;;;;;;;;;5072518;28;20027;-70
2022/04/20 08:11:25;;;;;;;8.52;5.00;;;;;;;;;;5070778;28;20035;-70
2022/04/20 08:14:10;;;;;;;5.93;4.65;;;;;;;;;;5071507;28;20040;-70
2022/04/20 08:16:36;;;;;;;7.30;4.50;;;;;;;;;;5068285;28;20039;-71
2022/04/20 08:19:03;;;;;;;6.88;4.70;;;;;;;;;;5069261;28;20038;-70
2022/04/20 08:21:29;;;;;;;7.07;4.85;;;;;;;;;;5070261;28;20040;-71
2022/04/20 08:23:55;;;;;;;8.25;4.45;;;;;;;;;;5070356;28;20094;-70
2022/04/20 08:26:22;;;;;;;7.53;4.80;;;;;;;;;;5023073;28;20069;-70
2022/04/20 08:28:48;;;;;;;6.97;5.22;;;;;;;;;;4977510;28;20033;-71
2022/04/20 08:31:15;;;;;;;7.13;4.60;;;;;;;;;;4991294;28;20284;-70
2022/04/20 08:33:41;;;;;;;6.35;5.55;;;;;;;;;;4993086;28;20577;-70
2022/04/20 08:36:08;;;;;;;5.90;4.45;;;;;;;;;;4989935;28;20084;-71
2022/04/20 08:38:36;;;;;;;6.57;4.30;;;;;;;;;;4990409;28;20022;-70
2022/04/20 08:41:02;;;;;;;5.93;4.10;;;;;;;;;;4992006;28;20041;-71
2022/04/20 08:43:30;;;;;;;4.75;4.05;;;;;;;;;;4987157;28;20019;-70
2022/04/20 08:45:59;;;;;;;5.00;4.38;;;;;;;;;;4990355;28;20050;-71
2022/04/20 08:48:26;;;;;;;7.13;4.55;;;;;;;;;;4997931;28;20018;-71
2022/04/20 08:50:54;;;;;;;5.78;5.15;;;;;;;;;;4987306;28;20042;-70
2022/04/20 08:53:20;;;;;;;5.70;4.82;;;;;;;;;;4986316;28;20026;-70
2022/04/20 08:55:47;;;;;;;5.88;4.68;;;;;;;;;;4986604;28;20026;-70
2022/04/20 08:58:13;;;;;;;5.22;4.72;;;;;;;;;;4986809;28;20023;-70
2022/04/20 09:00:40;;;;;;;5.13;4.60;;;;;;;;;;4988056;28;20038;-70
2022/04/20 09:03:06;;;;;;;6.65;4.85;;;;;;;;;;4986682;28;20019;-70
2022/04/20 09:05:34;;;;;;;6.68;4.65;;;;;;;;;;4993621;28;20038;-70
2022/04/20 09:08:08;;;;;;;9.18;4.65;;;;;;;;;;4985605;28;20395;-70
2022/04/20 09:10:36;;;;;;;6.53;4.38;;;;;;;;;;5003240;28;20031;-70
2022/04/20 09:13:07;;;;;;;11.45;5.10;;;;;;;;;;4990259;28;20037;-70
2022/04/20 09:15:35;;;;;;;6.45;5.20;;;;;;;;;;4989484;28;20034;-70
2022/04/20 09:18:05;;;;;;;6.68;5.18;;;;;;;;;;4989413;28;20044;-70
2022/04/20 09:20:32;;;;;;;10.57;5.15;;;;;;;;;;4990248;28;20034;-70
2022/04/20 09:22:59;;;;;;;5.65;4.47;;;;;;;;;;4990406;28;20507;-70
2022/04/20 09:25:29;;;;;;;6.28;4.28;;;;;;;;;;4987085;28;20503;-70
2022/04/20 09:27:56;;;;;;;10.67;5.07;;;;;;;;;;4989966;28;20030;-71
2022/04/20 09:30:22;;;;;;;8.30;5.65;;;;;;;;;;4990728;28;20280;-70
2022/04/20 09:32:49;;;;;;;6.57;5.35;;;;;;;;;;4988307;28;20026;-70
2022/04/20 09:35:19;;;;;;;7.68;5.10;;;;;;;;;;4985848;28;20124;-70
2022/04/20 09:37:45;;;;;;;7.60;5.20;;;;;;;;;;5004640;28;20042;-70
2022/04/20 09:40:13;;;;;;;8.57;5.85;;;;;;;;;;4988961;28;20296;-70
2022/04/20 09:42:59;;;;;;;11.80;5.65;;;;;;;;;;4986473;28;20038;-70
2022/04/20 09:45:25;;;;;;;8.63;5.50;;;;;;;;;;4988896;28;20516;-70
2022/04/20 09:50:37;;;;;;;9.05;5.40;;;;;;;;;;4989653;28;20446;-70
2022/04/20 09:53:07;;;;;;;11.40;5.97;;;;;;;;;;4989456;28;20018;-70
2022/04/20 09:55:37;;;;;;;9.00;5.82;;;;;;;;;;4989457;28;20439;-70
2022/04/20 09:58:10;;;;;;;8.30;5.28;;;;;;;;;;4989666;28;20525;-70
2022/04/20 10:00:41;;;;;;;9.48;6.28;;;;;;;;;;4989640;28;20391;-70
2022/04/20 10:03:07;;;;;;;10.15;6.90;;;;;;;;;;4991191;28;20022;-70
2022/04/20 10:05:34;;;;;;;8.98;6.25;;;;;;;;;;4990133;28;20040;-70
2022/04/20 10:08:01;;;;;;;12.65;6.85;;;;;;;;;;4988955;28;20506;-71
2022/04/20 10:10:30;;;;;;;7.82;5.88;;;;;;;;;;4989424;28;20031;-70
2022/04/20 10:12:56;;;;;;;9.90;6.10;;;;;;;;;;4989369;28;20030;-70
2022/04/20 10:18:10;;;;;;;6.88;4.75;;;;;;;;;;4989637;28;20030;-70
2022/04/20 10:20:37;;;;;;;7.40;5.00;;;;;;;;;;4990292;28;20022;-70
2022/04/20 10:23:05;;;;;;;9.20;5.38;;;;;;;;;;4990641;28;20277;-70
2022/04/20 10:25:32;;;;;;;8.57;5.13;;;;;;;;;;4990540;28;20061;-70
2022/04/20 10:27:58;;;;;;;8.02;5.43;;;;;;;;;;4993437;28;20025;-70
2022/04/20 10:30:41;;;;;;;8.52;4.82;;;;;;;;;;4994035;28;20410;-71
2022/04/20 10:33:09;;;;;;;9.45;4.70;;;;;;;;;;4997991;28;20034;-70
2022/04/20 10:35:54;;;;;;;8.23;4.60;;;;;;;;;;4990493;28;20088;-70
2022/04/20 10:38:21;;;;;;;5.75;4.32;;;;;;;;;;4994384;28;20018;-70
2022/04/20 10:40:55;;;;;;;6.97;4.30;;;;;;;;;;4989599;28;20400;-70
2022/04/20 10:43:23;;;;;;;6.13;4.57;;;;;;;;;;4992110;28;20034;-70
2022/04/20 10:46:04;;;;;;;5.55;4.25;;;;;;;;;;4991835;28;20052;-70
2022/04/20 10:48:51;;;;;;;4.88;4.00;;;;;;;;;;5002668;28;20033;-70
2022/04/20 10:51:46;;;;;;;4.43;3.75;;;;;;;;;;4994209;28;20041;-70
2022/04/20 10:54:18;;;;;;;6.35;3.90;;;;;;;;;;4993678;28;20428;-70
2022/04/20 10:56:51;;;;;;;5.15;4.30;;;;;;;;;;4993916;28;20029;-70
2022/04/20 10:59:17;;;;;;;4.75;3.67;;;;;;;;;;4993753;28;20040;-70
2022/04/20 11:02:13;;;;;;;6.55;3.72;;;;;;;;;;4993953;28;20487;-70
2022/04/20 11:04:44;;;;;;;6.57;3.97;;;;;;;;;;4988671;28;20500;-70
2022/04/20 11:07:12;;;;;;;7.20;3.53;;;;;;;;;;4993847;28;20027;-70
2022/04/20 11:09:52;;;;;;;6.53;3.80;;;;;;;;;;4990776;28;20053;-70
2022/04/20 11:21:07;;;;;;;4.60;3.35;;;;;;;;;;4992725;28;20128;-70
2022/04/20 11:23:58;;;;;;;4.45;3.25;;;;;;;;;;4993045;28;20030;-70
2022/04/20 11:26:28;;;;;;;4.28;3.03;;;;;;;;;;4992075;28;20446;-70
2022/04/20 11:29:09;;;;;;;7.30;3.22;;;;;;;;;;4988002;28;20061;-70
2022/04/20 11:31:36;;;;;;;;;;;;;;;;;;4989407;28;20542;-70
2022/04/20 11:34:03;;;;;;;7.40;4.50;;;;;;;;;;4992033;28;19928;-70
2022/04/20 11:36:29;;;;;;;7.82;3.90;;;;;;;;;;4989085;28;20484;-70
2022/04/20 11:38:55;;;;;;;8.57;3.60;;;;;;;;;;4987632;28;20033;-70
2022/04/20 11:41:22;;;;;;;6.13;3.60;;;;;;;;;;4992271;28;20024;-70
2022/04/20 11:43:52;;;;;;;7.00;3.70;;;;;;;;;;4992296;28;20018;-70
2022/04/20 11:46:20;;;;;;;8.20;3.38;;;;;;;;;;4992880;28;20410;-70
2022/04/20 11:48:56;;;;;;;6.35;3.88;;;;;;;;;;5000637;28;20025;-70
2022/04/20 11:51:27;;;;;;;9.38;5.13;;;;;;;;;;4992182;28;20034;-70
2022/04/20 11:53:54;;;;;;;11.82;6.43;;;;;;;;;;4993192;28;20026;-70
2022/04/20 11:56:33;;;;;;;18.98;8.45;;;;;;;;;;4992818;28;20451;-69
2022/04/20 11:59:00;;;;;;;16.40;8.88;;;;;;;;;;4992228;28;20075;-70
2022/04/20 12:01:29;;;;;;;13.70;7.50;;;;;;;;;;4990216;28;20038;-69
2022/04/20 12:03:55;;;;;;;23.23;10.25;;;;;;;;;;4991688;28;20026;-70
2022/04/20 12:06:24;;;;;;;13.27;9.00;;;;;;;;;;4987748;28;20404;-70
2022/04/20 12:08:53;;;;;;;12.20;9.00;;;;;;;;;;4988666;28;20026;-70
2022/04/20 12:11:19;;;;;;;20.05;10.50;;;;;;;;;;4988072;28;20022;-69
2022/04/20 12:13:46;;;;;;;16.48;9.18;;;;;;;;;;4988530;28;20395;-69
2022/04/20 12:16:13;;;;;;;15.50;8.77;;;;;;;;;;4992286;28;20022;-69
2022/04/20 12:18:42;;;;;;;18.25;9.52;;;;;;;;;;4989280;28;20476;-70
2022/04/20 12:21:35;;;;;;;21.00;10.68;;;;;;;;;;4987791;28;20438;-70
2022/04/20 12:24:01;;;;;;;21.63;9.18;;;;;;;;;;4987759;28;20507;-70
2022/04/20 12:26:28;;;;;;;18.58;9.18;;;;;;;;;;4988288;28;20035;-70
2022/04/20 12:29:02;;;;;;;15.77;10.57;;;;;;;;;;4991345;28;20026;-69
2022/04/20 12:31:29;;;;;;;27.67;16.23;;;;;;;;;;4991056;28;20042;-69
2022/04/20 12:34:06;;;;;;;19.67;9.55;;;;;;;;;;4991440;28;20022;-69
2022/04/20 12:36:51;;;;;;;21.48;9.77;;;;;;;;;;4988649;28;20561;-69
2022/04/20 12:39:27;;;;;;;12.73;9.10;;;;;;;;;;4988180;28;20029;-70
2022/04/20 12:41:55;;;;;;;13.40;8.77;;;;;;;;;;4987131;28;20038;-70
2022/04/20 12:44:37;;;;;;;13.57;10.02;;;;;;;;;;4987490;28;20042;-70
2022/04/20 12:47:23;;;;;;;13.68;9.07;;;;;;;;;;4987578;28;20050;-70
2022/04/20 12:49:59;;;;;;;16.42;9.30;;;;;;;;;;4994792;28;20019;-70
2022/04/20 12:52:27;;;;;;;13.60;10.05;;;;;;;;;;4989705;28;20052;-71
2022/04/20 12:54:53;;;;;;;10.60;8.27;;;;;;;;;;4990361;28;20034;-69
2022/04/20 13:03:02;;;;;;;8.38;6.03;;;;;;;;;;4992017;28;20029;-70
2022/04/20 13:05:29;;;;;;;7.50;4.97;;;;;;;;;;4991838;28;20042;-70
2022/04/20 13:07:56;;;;;;;6.50;5.22;;;;;;;;;;4991725;28;20085;-70
2022/04/20 13:10:22;;;;;;;9.55;6.97;;;;;;;;;;4991316;28;20404;-71
2022/04/20 13:12:53;;;;;;;7.28;5.47;;;;;;;;;;4991727;28;20034;-69
2022/04/20 13:15:20;;;;;;;5.95;4.32;;;;;;;;;;4989852;28;20072;-70
2022/04/20 13:17:47;;;;;;;5.40;4.35;;;;;;;;;;4991652;28;20034;-70
2022/04/20 13:20:14;;;;;;;4.28;3.45;;;;;;;;;;4987264;28;20022;-69
2022/04/20 13:22:40;;;;;;;4.93;3.35;;;;;;;;;;4987165;28;20015;-70
2022/04/20 13:27:55;;;;;;;6.25;3.78;;;;;;;;;;5005010;28;20088;-70
2022/04/20 13:30:21;;;;;;;8.98;6.18;;;;;;;;;;4991655;28;20018;-70
2022/04/20 13:32:51;;;;;;;7.85;4.57;;;;;;;;;;4993688;28;20040;-71
2022/04/20 13:35:17;;;;;;;6.55;4.38;;;;;;;;;;4987117;28;20029;-70
2022/04/20 13:37:44;;;;;;;4.93;3.95;;;;;;;;;;4990683;28;20483;-71
2022/04/20 13:40:10;;;;;;;6.43;3.60;;;;;;;;;;4991542;28;20026;-71
2022/04/20 13:42:37;;;;;;;9.48;3.17;;;;;;;;;;5005192;28;20018;-71
2022/04/20 13:45:04;;;;;;;4.80;3.08;;;;;;;;;;4990950;28;20042;-70
2022/04/20 13:47:31;;;;;;;6.32;4.07;;;;;;;;;;4991686;28;20052;-71
2022/04/20 13:49:57;;;;;;;6.80;4.10;;;;;;;;;;4991795;28;20037;-71
2022/04/20 13:52:24;;;;;;;6.25;3.83;;;;;;;;;;4991871;28;20442;-71
2022/04/20 13:54:50;;;;;;;4.38;3.47;;;;;;;;;;4991855;28;20476;-70
2022/04/20 13:57:17;;;;;;;5.32;3.60;;;;;;;;;;4989889;28;20407;-70
2022/04/20 13:59:43;;;;;;;3.95;3.00;;;;;;;;;;4991370;28;20475;-70
2022/04/20 14:02:10;;;;;;;6.22;3.75;;;;;;;;;;4995089;28;20032;-70
2022/04/20 14:04:37;;;;;;;6.45;3.50;;;;;;;;;;5010826;28;20030;-70
2022/04/20 14:07:03;;;;;;;7.45;3.60;;;;;;;;;;4995834;28;20015;-70
2022/04/20 14:09:30;;;;;;;8.40;4.38;;;;;;;;;;4991757;28;20367;-70
2022/04/20 14:11:56;;;;;;;6.88;3.95;;;;;;;;;;4991244;28;20030;-70
2022/04/20 14:14:22;;;;;;;4.55;2.90;;;;;;;;;;4990815;28;20049;-70
2022/04/20 14:16:49;;;;;;;8.05;3.65;;;;;;;;;;4995495;28;20022;-70
2022/04/20 14:19:15;;;;;;;4.82;3.20;;;;;;;;;;4995559;28;20041;-70
2022/04/20 14:21:41;;;;;;;6.28;3.90;;;;;;;;;;4995707;28;20030;-70
2022/04/20 14:24:08;;;;;;;7.95;5.40;;;;;;;;;;5003870;28;20026;-70
2022/04/20 14:32:15;;;;;;;6.85;4.38;;;;;;;;;;4990870;28;20049;-70
2022/04/20 14:34:46;;;;;;;9.32;4.55;;;;;;;;;;4988176;28;20033;-70
2022/04/20 14:37:13;;;;;;;7.30;3.83;;;;;;;;;;4994779;28;20041;-70
2022/04/20 14:39:41;;;;;;;6.40;3.60;;;;;;;;;;4991927;28;20553;-70
2022/04/20 14:42:07;;;;;;;4.78;3.53;;;;;;;;;;4994716;28;20030;-70
2022/04/20 14:44:35;;;;;;;4.57;3.40;;;;;;;;;;4994951;28;20048;-70
2022/04/20 14:47:03;;;;;;;6.53;3.38;;;;;;;;;;4994973;28;20046;-70
2022/04/20 14:49:30;;;;;;;4.45;3.38;;;;;;;;;;4995111;28;20018;-70
2022/04/20 14:51:57;;;;;;;4.78;3.63;;;;;;;;;;4994990;28;20034;-70
2022/04/20 14:54:23;;;;;;;7.60;3.67;;;;;;;;;;4995408;28;20031;-70
2022/04/20 14:56:50;;;;;;;7.32;3.28;;;;;;;;;;4994656;28;20029;-70
2022/04/20 14:59:16;;;;;;;8.82;4.20;;;;;;;;;;4994728;28;20030;-70
2022/04/20 15:01:44;;;;;;;5.45;4.47;;;;;;;;;;4992250;28;20019;-71
2022/04/20 15:04:10;;;;;;;9.38;4.00;;;;;;;;;;4991891;28;20092;-70
2022/04/20 15:06:37;;;;;;;5.38;3.85;;;;;;;;;;4990590;28;20466;-70
2022/04/20 15:09:04;;;;;;;6.20;3.88;;;;;;;;;;4990546;28;20032;-70
2022/04/20 15:11:31;;;;;;;7.05;4.43;;;;;;;;;;4989737;28;20026;-70
2022/04/20 15:13:58;;;;;;;8.55;4.45;;;;;;;;;;4989428;28;20033;-70
2022/04/20 15:16:25;;;;;;;6.95;4.25;;;;;;;;;;4992379;28;20021;-70
2022/04/20 15:18:53;;;;;;;6.70;5.30;;;;;;;;;;5003844;28;20030;-70
2022/04/20 15:21:19;;;;;;;5.55;4.70;;;;;;;;;;4994881;28;20045;-71
2022/04/20 15:23:46;;;;;;;9.77;5.90;;;;;;;;;;4994312;28;20030;-70
2022/04/20 15:26:12;;;;;;;15.05;6.57;;;;;;;;;;4993842;28;20058;-71
2022/04/20 15:28:39;;;;;;;8.55;7.38;;;;;;;;;;4994188;28;20033;-70
2022/04/20 15:31:07;;;;;;;10.27;8.20;;;;;;;;;;4978641;28;20396;-70
2022/04/20 15:33:34;;;;;;;12.15;8.75;;;;;;;;;;4994757;28;20391;-71
2022/04/20 15:36:00;;;;;;;7.55;4.15;;;;;;;;;;4993903;28;20030;-70